createdAt,value
2018-01-14T00:00:39.364Z,15.10
2018-01-14T00:03:06.825Z,14.70
2018-01-14T00:05:34.308Z,14.87
2018-01-14T00:08:01.823Z,14.77
2018-01-14T00:10:29.310Z,14.70
2018-01-14T00:12:56.796Z,16.07
2018-01-14T00:15:24.271Z,14.90
2018-01-14T00:17:51.735Z,15.67
2018-01-14T00:20:19.276Z,13.97
2018-01-14T00:22:46.772Z,14.47
2018-01-14T00:25:14.236Z,13.90
2018-01-14T00:27:41.703Z,13.40
2018-01-14T00:30:09.168Z,14.87
2018-01-14T00:32:36.693Z,15.20
2018-01-14T00:35:04.158Z,16.30
2018-01-14T00:37:31.618Z,14.80
2018-01-14T00:39:59.100Z,13.70
2018-01-14T00:42:26.770Z,14.23
2018-01-14T00:44:54.293Z,14.33
2018-01-14T00:47:21.759Z,15.03
2018-01-14T00:49:49.219Z,15.20
2018-01-14T00:52:16.721Z,14.70
2018-01-14T00:54:44.644Z,15.97
2018-01-14T00:57:12.121Z,15.20
2018-01-14T00:59:39.578Z,15.87
2018-01-14T01:02:07.087Z,17.03
2018-01-14T01:04:34.591Z,16.63
2018-01-14T01:07:02.060Z,17.73
2018-01-14T01:09:29.629Z,16.80
2018-01-14T01:11:57.099Z,16.53
2018-01-14T01:14:24.561Z,15.20
2018-01-14T01:16:52.068Z,16.90
2018-01-14T01:19:19.556Z,16.87
2018-01-14T01:21:47.003Z,18.20
2018-01-14T01:24:14.490Z,15.80
2018-01-14T01:26:41.977Z,17.23
2018-01-14T01:29:09.451Z,17.40
2018-01-14T01:31:37.090Z,16.30
2018-01-14T01:34:04.579Z,17.67
2018-01-14T01:36:32.030Z,16.07
2018-01-14T01:38:59.485Z,17.50
2018-01-14T01:41:26.982Z,16.73
2018-01-14T01:43:54.485Z,16.00
2018-01-14T01:46:21.961Z,16.27
2018-01-14T01:48:49.487Z,15.93
2018-01-14T01:51:16.997Z,15.63
2018-01-14T01:53:44.484Z,16.93
2018-01-14T01:56:12.130Z,16.40
2018-01-14T01:58:39.620Z,16.93
2018-01-14T02:01:07.101Z,14.87
2018-01-14T02:03:34.573Z,16.00
2018-01-14T02:06:02.062Z,15.47
2018-01-14T02:08:29.552Z,16.17
2018-01-14T02:10:57.027Z,16.30
2018-01-14T02:13:24.507Z,16.90
2018-01-14T02:15:52.008Z,15.80
2018-01-14T02:18:19.478Z,15.70
2018-01-14T02:20:46.935Z,15.60
2018-01-14T02:23:14.415Z,16.60
2018-01-14T02:25:41.881Z,16.15
2018-01-14T02:28:09.351Z,15.43
2018-01-14T02:30:36.815Z,17.20
2018-01-14T02:33:04.279Z,17.27
2018-01-14T02:35:31.734Z,18.10
2018-01-14T02:37:59.246Z,18.45
2018-01-14T02:40:26.731Z,16.17
2018-01-14T02:42:54.210Z,17.25
2018-01-14T02:45:21.672Z,17.27
2018-01-14T02:47:49.284Z,16.30
2018-01-14T02:50:16.915Z,15.50
2018-01-14T02:52:45.647Z,15.57
2018-01-14T02:55:13.131Z,14.80
2018-01-14T02:57:40.586Z,14.03
2018-01-14T03:00:08.050Z,15.00
2018-01-14T03:02:35.760Z,14.60
2018-01-14T03:05:03.218Z,14.60
2018-01-14T03:07:30.695Z,15.37
2018-01-14T03:09:58.163Z,16.20
2018-01-14T03:12:25.636Z,15.95
2018-01-14T03:14:53.103Z,16.20
2018-01-14T03:17:20.587Z,17.20
2018-01-14T03:19:48.042Z,16.60
2018-01-14T03:22:16.151Z,15.70
2018-01-14T03:24:43.646Z,17.10
2018-01-14T03:27:11.099Z,15.20
2018-01-14T03:29:39.590Z,17.48
2018-01-14T03:32:07.041Z,16.23
2018-01-14T03:34:34.542Z,17.70
2018-01-14T03:37:02.018Z,18.45
2018-01-14T03:39:29.475Z,19.05
2018-01-14T03:41:56.935Z,18.03
2018-01-14T03:44:24.439Z,19.07
2018-01-14T03:46:51.896Z,19.47
2018-01-14T03:49:19.353Z,20.40
2018-01-14T03:51:46.832Z,20.57
2018-01-14T03:54:14.298Z,19.17
2018-01-14T03:56:41.774Z,21.60
2018-01-14T03:59:09.254Z,20.25
2018-01-14T04:01:36.743Z,21.70
2018-01-14T04:04:04.206Z,20.60
2018-01-14T04:06:31.803Z,21.15
2018-01-14T04:08:59.551Z,21.65
2018-01-14T04:11:27.008Z,22.00
2018-01-14T04:13:54.482Z,22.27
2018-01-14T04:16:21.948Z,22.00
2018-01-14T04:18:49.577Z,21.73
2018-01-14T04:21:17.529Z,21.67
2018-01-14T04:23:45.011Z,20.55
2018-01-14T04:26:12.468Z,20.93
2018-01-14T04:28:40.036Z,21.17
2018-01-14T04:31:07.513Z,21.07
2018-01-14T04:33:34.945Z,21.05
2018-01-14T04:36:02.451Z,22.08
2018-01-14T04:38:29.934Z,22.80
2018-01-14T04:40:57.441Z,21.40
2018-01-14T04:43:24.907Z,20.30
2018-01-14T04:45:52.383Z,22.20
2018-01-14T04:48:19.868Z,20.73
2018-01-14T04:50:47.327Z,21.42
2018-01-14T04:53:14.786Z,20.92
2018-01-14T04:55:42.274Z,22.03
2018-01-14T04:58:09.789Z,22.08
2018-01-14T05:00:37.257Z,22.40
2018-01-14T05:03:04.722Z,22.55
2018-01-14T05:05:32.196Z,22.17
2018-01-14T05:07:59.752Z,20.98
2018-01-14T05:10:27.214Z,21.73
2018-01-14T05:12:54.693Z,19.98
2018-01-14T05:15:22.162Z,21.10
2018-01-14T05:17:49.627Z,22.23
2018-01-14T05:20:17.094Z,21.58
2018-01-14T05:22:44.543Z,20.97
2018-01-14T05:25:12.034Z,20.17
2018-01-14T05:27:39.543Z,19.70
2018-01-14T05:30:07.007Z,19.70
2018-01-14T05:32:34.540Z,19.87
2018-01-14T05:35:02.030Z,19.60
2018-01-14T05:37:29.487Z,18.17
2018-01-14T05:39:56.953Z,19.07
2018-01-14T05:42:24.465Z,18.10
2018-01-14T05:44:51.922Z,18.67
2018-01-14T05:47:19.399Z,19.40
2018-01-14T05:49:46.903Z,18.55
2018-01-14T05:52:14.625Z,18.47
2018-01-14T05:54:42.086Z,18.98
2018-01-14T05:57:09.545Z,18.87
2018-01-14T05:59:37.006Z,20.03
2018-01-14T06:02:04.469Z,20.57
2018-01-14T06:04:31.970Z,21.52
2018-01-14T06:06:59.430Z,21.50
2018-01-14T06:09:26.900Z,21.10
2018-01-14T06:11:54.367Z,21.73
2018-01-14T06:14:21.825Z,21.45
2018-01-14T06:16:49.301Z,24.00
2018-01-14T06:19:16.798Z,21.95
2018-01-14T06:21:44.284Z,22.42
2018-01-14T06:24:11.762Z,21.27
2018-01-14T06:26:39.231Z,22.17
2018-01-14T06:29:06.691Z,20.57
2018-01-14T06:31:34.187Z,21.52
2018-01-14T06:34:01.667Z,21.77
2018-01-14T06:36:30.393Z,22.00
2018-01-14T06:38:57.947Z,22.43
2018-01-14T06:41:25.402Z,22.37
2018-01-14T06:43:52.894Z,21.35
2018-01-14T06:46:20.423Z,21.48
2018-01-14T06:48:50.721Z,22.25
2018-01-14T06:51:18.409Z,23.00
2018-01-14T06:53:45.862Z,21.93
2018-01-14T06:56:13.315Z,22.73
2018-01-14T06:58:40.875Z,21.62
2018-01-14T07:01:08.382Z,20.00
2018-01-14T07:03:35.894Z,20.00
2018-01-14T07:06:03.368Z,22.07
2018-01-14T07:08:31.164Z,20.25
2018-01-14T07:10:58.851Z,20.40
2018-01-14T07:13:26.752Z,20.80
2018-01-14T07:15:54.213Z,21.45
2018-01-14T07:18:21.706Z,21.60
2018-01-14T07:20:49.193Z,20.33
2018-01-14T07:23:16.679Z,20.12
2018-01-14T07:25:44.166Z,22.03
2018-01-14T07:28:11.642Z,22.75
2018-01-14T07:30:39.956Z,23.10
2018-01-14T07:33:07.580Z,23.02
2018-01-14T07:35:35.070Z,22.80
2018-01-14T07:38:02.563Z,24.52
2018-01-14T07:40:30.051Z,23.58
2018-01-14T07:42:57.526Z,21.75
2018-01-14T07:45:25.011Z,23.77
2018-01-14T07:47:53.509Z,22.50
2018-01-14T07:50:20.979Z,21.87
2018-01-14T07:52:48.472Z,20.00
2018-01-14T07:55:15.962Z,18.80
2018-01-14T07:57:43.452Z,21.37
2018-01-14T08:00:10.907Z,21.23
2018-01-14T08:02:38.528Z,20.55
2018-01-14T08:05:06.035Z,21.25
2018-01-14T08:07:35.714Z,21.62
2018-01-14T08:10:03.170Z,21.93
2018-01-14T08:12:30.623Z,27.58
2018-01-14T08:14:59.355Z,23.30
2018-01-14T08:17:26.935Z,21.67
2018-01-14T08:19:54.499Z,20.12
2018-01-14T08:22:22.857Z,21.45
2018-01-14T08:24:52.230Z,20.80
2018-01-14T08:27:20.009Z,20.42
2018-01-14T08:29:48.157Z,21.58
2018-01-14T08:32:17.067Z,21.20
2018-01-14T08:34:44.812Z,25.33
2018-01-14T08:37:13.463Z,25.02
2018-01-14T08:39:41.901Z,22.50
2018-01-14T08:42:09.743Z,23.52
2018-01-14T08:44:40.606Z,22.90
2018-01-14T08:47:08.299Z,23.65
2018-01-14T08:49:35.795Z,24.83
2018-01-14T08:52:03.316Z,22.13
2018-01-14T08:54:31.096Z,21.90
2018-01-14T08:56:58.564Z,23.00
2018-01-14T08:59:26.040Z,20.88
2018-01-14T09:01:53.533Z,21.87
2018-01-14T09:04:20.990Z,20.50
2018-01-14T09:06:48.876Z,23.17
2018-01-14T09:09:16.623Z,21.00
2018-01-14T09:11:44.087Z,21.30
2018-01-14T09:14:11.606Z,21.25
2018-01-14T09:16:39.122Z,20.95
2018-01-14T09:19:06.628Z,19.53
2018-01-14T09:21:34.097Z,20.00
2018-01-14T09:24:01.668Z,18.40
2018-01-14T09:26:29.062Z,20.57
2018-01-14T09:28:56.559Z,21.77
2018-01-14T09:31:24.191Z,20.48
2018-01-14T09:33:51.826Z,19.13
2018-01-14T09:36:19.282Z,19.87
2018-01-14T09:38:46.766Z,20.10
2018-01-14T09:41:14.260Z,18.87
2018-01-14T09:43:41.924Z,19.17
2018-01-14T09:46:10.618Z,19.93
2018-01-14T09:48:38.229Z,18.87
2018-01-14T09:51:05.722Z,18.73
2018-01-14T09:53:33.189Z,19.27
2018-01-14T09:56:00.667Z,19.20
2018-01-14T09:58:28.142Z,19.17
2018-01-14T10:00:55.646Z,18.00
2018-01-14T10:03:23.115Z,15.37
2018-01-14T10:05:50.591Z,15.80
2018-01-14T10:08:18.071Z,16.40
2018-01-14T10:10:45.549Z,16.67
2018-01-14T10:13:13.048Z,15.87
2018-01-14T10:15:40.502Z,16.40
2018-01-14T10:18:08.013Z,15.57
2018-01-14T10:20:38.412Z,16.37
2018-01-14T10:23:05.956Z,16.50
2018-01-14T10:25:33.438Z,17.10
2018-01-14T10:28:00.919Z,15.83
2018-01-14T10:30:28.656Z,14.90
2018-01-14T10:32:56.126Z,16.43
2018-01-14T10:35:24.700Z,15.50
2018-01-14T10:37:52.214Z,14.97
2018-01-14T10:40:19.693Z,15.57
2018-01-14T10:42:47.163Z,16.13
2018-01-14T10:45:14.662Z,16.50
2018-01-14T10:47:42.171Z,17.07
2018-01-14T10:50:09.880Z,14.90
2018-01-14T10:52:37.368Z,15.50
2018-01-14T10:57:38.540Z,15.03
2018-01-14T11:00:06.015Z,16.00
2018-01-14T11:02:33.696Z,15.43
2018-01-14T11:05:01.334Z,15.40
2018-01-14T11:07:28.794Z,15.13
2018-01-14T11:09:56.254Z,14.70
2018-01-14T11:12:23.746Z,16.00
2018-01-14T11:14:51.223Z,15.80
2018-01-14T11:17:18.695Z,15.83
2018-01-14T11:19:46.206Z,16.23
2018-01-14T11:22:13.634Z,15.40
2018-01-14T11:24:41.101Z,15.07
2018-01-14T11:27:08.609Z,14.03
2018-01-14T11:29:41.814Z,13.53
2018-01-14T11:32:09.286Z,15.30
2018-01-14T11:34:36.983Z,14.50
2018-01-14T11:37:04.520Z,13.53
2018-01-14T11:39:31.966Z,14.87
2018-01-14T11:41:59.435Z,14.10
2018-01-14T11:44:26.923Z,14.80
2018-01-14T11:46:54.408Z,13.40
2018-01-14T11:49:21.924Z,14.17
2018-01-14T11:51:49.570Z,13.50
2018-01-14T11:54:17.046Z,14.33
2018-01-14T11:56:44.556Z,15.80
2018-01-14T11:59:12.049Z,14.20
2018-01-14T12:01:39.553Z,14.20
2018-01-14T12:04:07.035Z,13.37
2018-01-14T12:06:34.548Z,14.17
2018-01-14T12:09:02.143Z,13.13
2018-01-14T12:11:29.639Z,14.10
2018-01-14T12:13:57.101Z,13.90
2018-01-14T12:16:24.595Z,14.20
2018-01-14T12:18:52.135Z,13.87
2018-01-14T12:21:19.661Z,16.83
2018-01-14T12:23:47.144Z,15.43
2018-01-14T12:26:15.429Z,14.20
2018-01-14T12:28:42.942Z,18.53
2018-01-14T12:31:10.462Z,16.17
2018-01-14T12:36:51.118Z,14.23
2018-01-14T12:39:19.193Z,15.03
2018-01-14T12:41:46.664Z,16.03
2018-01-14T12:44:14.137Z,14.77
2018-01-14T12:46:42.268Z,14.53
2018-01-14T12:49:09.764Z,15.70
2018-01-14T12:51:37.243Z,16.77
2018-01-14T12:54:04.743Z,16.70
2018-01-14T12:56:32.219Z,16.40
2018-01-14T12:58:59.672Z,17.00
2018-01-14T13:01:27.155Z,16.07
2018-01-14T13:03:54.614Z,16.63
2018-01-14T13:06:22.079Z,16.97
2018-01-14T13:08:49.581Z,16.80
2018-01-14T13:11:17.083Z,17.00
2018-01-14T13:13:44.553Z,17.07
2018-01-14T13:16:12.083Z,17.23
2018-01-14T13:18:39.550Z,18.00
2018-01-14T13:21:07.027Z,17.37
2018-01-14T13:23:34.484Z,18.20
2018-01-14T13:26:01.978Z,18.07
2018-01-14T13:28:29.469Z,16.77
2018-01-14T13:30:56.943Z,18.57
2018-01-14T13:33:24.403Z,17.30
2018-01-14T13:35:51.883Z,18.40
2018-01-14T13:38:19.359Z,16.40
2018-01-14T13:40:46.841Z,17.40
2018-01-14T13:43:14.325Z,16.60
2018-01-14T13:45:41.781Z,16.93
2018-01-14T13:48:09.262Z,19.20
2018-01-14T13:50:36.763Z,18.47
2018-01-14T13:53:04.239Z,18.92
2018-01-14T13:55:31.727Z,18.33
2018-01-14T13:57:59.235Z,19.05
2018-01-14T14:00:27.020Z,19.75
2018-01-14T14:02:54.495Z,20.17
2018-01-14T14:05:21.954Z,18.40
2018-01-14T14:07:49.437Z,20.33
2018-01-14T14:10:17.258Z,20.00
2018-01-14T14:12:45.090Z,21.27
2018-01-14T14:15:12.600Z,19.30
2018-01-14T14:17:40.071Z,21.23
2018-01-14T14:20:07.559Z,23.20
2018-01-14T14:22:35.331Z,22.57
2018-01-14T14:25:02.824Z,21.30
2018-01-14T14:27:30.291Z,20.77
2018-01-14T14:29:57.743Z,23.03
2018-01-14T14:32:25.206Z,22.80
2018-01-14T14:34:52.708Z,23.07
2018-01-14T14:37:20.175Z,23.80
2018-01-14T14:39:47.678Z,23.40
2018-01-14T14:42:15.156Z,24.17
2018-01-14T14:44:42.620Z,22.80
2018-01-14T14:47:10.111Z,23.05
2018-01-14T14:49:43.211Z,23.40
2018-01-14T14:52:10.697Z,22.50
2018-01-14T14:54:38.155Z,23.85
2018-01-14T14:57:05.636Z,23.27
2018-01-14T14:59:33.143Z,22.50
2018-01-14T15:02:01.876Z,21.98
2018-01-14T15:04:29.366Z,23.90
2018-01-14T15:06:56.869Z,24.03
2018-01-14T15:09:24.403Z,21.80
2018-01-14T15:11:51.872Z,22.45
2018-01-14T15:14:19.368Z,23.20
2018-01-14T15:16:46.842Z,23.27
2018-01-14T15:19:14.449Z,24.80
2018-01-14T15:21:41.945Z,24.00
2018-01-14T15:24:09.418Z,24.55
2018-01-14T15:26:37.145Z,25.50
2018-01-14T15:29:04.625Z,27.62
2018-01-14T15:31:32.090Z,28.42
2018-01-14T15:33:59.556Z,27.70
2018-01-14T15:36:27.125Z,26.90
2018-01-14T15:38:54.718Z,27.27
2018-01-14T15:41:22.220Z,28.67
2018-01-14T15:43:49.693Z,27.13
2018-01-14T15:46:17.300Z,27.52
2018-01-14T15:48:45.114Z,29.23
2018-01-14T15:51:12.622Z,27.42
2018-01-14T15:53:40.088Z,27.70
2018-01-14T15:56:07.590Z,27.90
2018-01-14T15:58:35.371Z,28.15
2018-01-14T16:01:02.867Z,26.25
2018-01-14T16:03:30.372Z,28.23
2018-01-14T16:05:57.873Z,26.02
2018-01-14T16:08:25.376Z,26.45
2018-01-14T16:10:52.847Z,26.23
2018-01-14T16:13:20.338Z,26.73
2018-01-14T16:15:47.839Z,27.73
2018-01-14T16:18:15.313Z,27.00
2018-01-14T16:20:42.774Z,28.12
2018-01-14T16:23:10.255Z,29.10
2018-01-14T16:25:37.734Z,27.17
2018-01-14T16:28:05.247Z,27.92
2018-01-14T16:30:32.973Z,25.90
2018-01-14T16:33:00.460Z,26.20
2018-01-14T16:35:27.960Z,24.87
2018-01-14T16:37:55.442Z,25.65
2018-01-14T16:40:22.984Z,26.75
2018-01-14T16:42:50.646Z,25.40
2018-01-14T16:45:18.397Z,23.33
2018-01-14T16:47:45.877Z,23.40
2018-01-14T16:50:13.376Z,24.08
2018-01-14T16:52:40.855Z,24.58
2018-01-14T16:55:08.314Z,25.20
2018-01-14T16:57:35.867Z,23.60
2018-01-14T17:00:03.368Z,25.45
2018-01-14T17:02:30.905Z,23.85
2018-01-14T17:04:58.375Z,24.05
2018-01-14T17:07:25.862Z,24.05
2018-01-14T17:09:53.362Z,24.65
2018-01-14T17:12:20.982Z,24.23
2018-01-14T17:14:48.538Z,25.60
2018-01-14T17:17:16.020Z,22.92
2018-01-14T17:19:43.511Z,23.98
2018-01-14T17:22:11.001Z,23.87
2018-01-14T17:24:38.549Z,23.62
2018-01-14T17:27:06.074Z,23.48
2018-01-14T17:29:33.634Z,23.95
2018-01-14T17:32:01.131Z,23.27
2018-01-14T17:34:28.645Z,23.87
2018-01-14T17:36:56.139Z,24.45
2018-01-14T17:39:23.705Z,23.83
2018-01-14T17:41:52.216Z,22.33
2018-01-14T17:44:19.704Z,24.30
2018-01-14T17:46:47.195Z,23.30
2018-01-14T17:49:14.728Z,22.17
2018-01-14T17:51:42.212Z,24.77
2018-01-14T17:54:09.734Z,23.17
2018-01-14T17:56:37.474Z,23.60
2018-01-14T17:59:04.960Z,23.50
2018-01-14T18:01:32.444Z,23.35
2018-01-14T18:03:59.963Z,25.40
2018-01-14T18:06:27.546Z,24.33
2018-01-14T18:08:55.343Z,23.83
2018-01-14T18:11:22.854Z,24.23
2018-01-14T18:13:50.383Z,24.08
2018-01-14T18:16:18.043Z,24.52
2018-01-14T18:18:45.607Z,23.02
2018-01-14T18:21:13.121Z,26.08
2018-01-14T18:23:40.624Z,24.58
2018-01-14T18:26:08.168Z,25.52
2018-01-14T18:28:35.680Z,24.90
2018-01-14T18:31:03.197Z,25.40
2018-01-14T18:33:30.719Z,23.25
2018-01-14T18:35:58.299Z,23.10
2018-01-14T18:38:25.804Z,23.95
2018-01-14T18:40:53.341Z,24.30
2018-01-14T18:43:20.863Z,24.35
2018-01-14T18:46:13.038Z,24.20
2018-01-14T18:48:40.576Z,24.50
2018-01-14T18:51:08.072Z,21.75
2018-01-14T18:53:35.564Z,22.02
2018-01-14T18:56:03.139Z,24.50
2018-01-14T18:58:31.145Z,23.25
2018-01-14T19:00:58.724Z,23.73
2018-01-14T19:03:26.218Z,25.15
2018-01-14T19:05:53.738Z,23.83
2018-01-14T19:08:21.235Z,24.20
2018-01-14T19:10:48.733Z,23.73
2018-01-14T19:13:16.219Z,23.77
2018-01-14T19:15:43.722Z,23.10
2018-01-14T19:18:11.209Z,23.85
2018-01-14T19:20:38.782Z,26.12
2018-01-14T19:23:06.315Z,22.95
2018-01-14T19:25:33.823Z,22.77
2018-01-14T19:28:01.442Z,25.40
2018-01-14T19:30:31.952Z,24.60
2018-01-14T19:32:59.444Z,25.33
2018-01-14T19:35:26.954Z,28.48
2018-01-14T19:37:54.505Z,25.58
2018-01-14T19:40:22.024Z,26.12
2018-01-14T19:42:49.649Z,26.20
2018-01-14T19:45:17.250Z,30.20
2018-01-14T19:47:44.775Z,28.30
2018-01-14T19:50:12.419Z,28.05
2018-01-14T19:52:40.010Z,25.65
2018-01-14T19:55:07.716Z,26.60
2018-01-14T19:57:35.425Z,25.98
2018-01-14T20:00:03.163Z,26.58
2018-01-14T20:02:30.738Z,27.17
2018-01-14T20:04:58.327Z,28.00
2018-01-14T20:07:25.854Z,29.08
2018-01-14T20:09:53.503Z,28.85
2018-01-14T20:12:21.187Z,29.92
2018-01-14T20:14:48.862Z,28.90
2018-01-14T20:17:16.514Z,29.48
2018-01-14T20:19:44.332Z,28.50
2018-01-14T20:22:12.023Z,29.90
2018-01-14T20:24:39.724Z,28.48
2018-01-14T20:27:07.308Z,27.37
2018-01-14T20:29:35.007Z,27.75
2018-01-14T20:32:02.702Z,27.95
2018-01-14T20:34:30.373Z,27.00
2018-01-14T20:36:57.923Z,27.50
2018-01-14T20:39:25.505Z,26.95
2018-01-14T20:41:53.038Z,27.58
2018-01-14T20:44:25.988Z,26.12
2018-01-14T20:46:53.566Z,24.65
2018-01-14T20:49:21.215Z,25.37
2018-01-14T20:51:48.990Z,25.50
2018-01-14T20:54:16.608Z,24.15
2018-01-14T20:56:44.139Z,22.67
2018-01-14T20:59:11.687Z,21.10
2018-01-14T21:01:39.215Z,21.35
2018-01-14T21:04:06.719Z,22.15
2018-01-14T21:06:34.244Z,20.77
2018-01-14T21:09:01.745Z,21.85
2018-01-14T21:11:29.237Z,20.23
2018-01-14T21:13:56.720Z,20.62
2018-01-14T21:16:24.203Z,21.23
2018-01-14T21:18:51.733Z,21.17
2018-01-14T21:21:19.340Z,21.65
2018-01-14T21:23:46.834Z,20.00
2018-01-14T21:26:14.304Z,20.15
2018-01-14T21:28:41.827Z,20.60
2018-01-14T21:31:09.314Z,20.33
2018-01-14T21:33:36.824Z,19.62
2018-01-14T21:36:04.307Z,17.17
2018-01-14T21:38:31.780Z,20.55
2018-01-14T21:40:59.261Z,19.75
2018-01-14T21:43:26.756Z,20.77
2018-01-14T21:45:54.374Z,18.45
2018-01-14T21:48:21.857Z,21.30
2018-01-14T21:50:49.360Z,19.87
2018-01-14T21:53:16.889Z,21.60
2018-01-14T21:55:44.352Z,21.77
2018-01-14T21:58:11.846Z,20.30
2018-01-14T22:00:39.347Z,21.55
2018-01-14T22:03:06.832Z,22.87
2018-01-14T22:05:34.325Z,22.65
2018-01-14T22:08:01.808Z,21.92
2018-01-14T22:10:29.340Z,21.92
2018-01-14T22:12:56.832Z,22.20
2018-01-14T22:15:24.371Z,22.17
2018-01-14T22:17:51.911Z,23.48
2018-01-14T22:20:20.054Z,23.33
2018-01-14T22:22:47.655Z,25.12
2018-01-14T22:25:15.465Z,25.33
2018-01-14T22:27:42.955Z,25.05
2018-01-14T22:30:10.569Z,25.17
2018-01-14T22:32:40.261Z,24.15
2018-01-14T22:35:07.800Z,24.58
2018-01-14T22:37:35.422Z,25.58
2018-01-14T22:40:02.914Z,24.75
2018-01-14T22:42:30.469Z,25.08
2018-01-14T22:44:58.459Z,24.60
2018-01-14T22:47:26.045Z,23.98
2018-01-14T22:49:53.572Z,24.90
2018-01-14T22:52:21.044Z,23.92
2018-01-14T22:54:49.427Z,24.42
2018-01-14T22:57:18.867Z,24.00
2018-01-14T22:59:46.342Z,24.08
2018-01-14T23:02:13.843Z,22.70
2018-01-14T23:04:41.311Z,24.60
2018-01-14T23:07:08.791Z,26.25
2018-01-14T23:09:36.279Z,24.52
2018-01-14T23:12:03.788Z,24.27
2018-01-14T23:14:31.316Z,25.05
2018-01-14T23:16:58.825Z,26.05
2018-01-14T23:19:26.304Z,24.70
2018-01-14T23:21:53.786Z,25.58
2018-01-14T23:24:21.267Z,24.58
2018-01-14T23:26:48.779Z,25.60
2018-01-14T23:29:16.237Z,27.80
2018-01-14T23:31:43.702Z,26.08
2018-01-14T23:34:11.198Z,28.65
2018-01-14T23:36:38.686Z,26.70
2018-01-14T23:39:06.163Z,26.52
2018-01-14T23:41:33.652Z,26.90
2018-01-14T23:44:01.150Z,26.73
2018-01-14T23:46:28.670Z,27.17
2018-01-14T23:48:56.239Z,26.00
2018-01-14T23:51:23.745Z,28.95
2018-01-14T23:53:51.229Z,27.30
2018-01-14T23:56:18.868Z,28.25
2018-01-14T23:58:46.354Z,27.65
